sensor_id;sensor_type;location;lat;lon;timestamp;P1;durP1;ratioP1;P2;durP2;ratioP2
27161;SDS011;54464;50.558;9.704;2024-03-25T00:03:18;4.17;;;2.17;;
27161;SDS011;54464;50.558;9.704;2024-03-25T00:11:10;2.37;;;1.83;;
27161;SDS011;54464;50.558;9.704;2024-03-25T00:17:00;3.57;;;2.03;;
27161;SDS011;54464;50.558;9.704;2024-03-25T00:36:12;3.27;;;2.50;;
27161;SDS011;54464;50.558;9.704;2024-03-25T00:39:02;3.10;;;1.83;;
27161;SDS011;54464;50.558;9.704;2024-03-25T00:41:28;4.67;;;2.37;;
27161;SDS011;54464;50.558;9.704;2024-03-25T00:43:54;6.07;;;2.33;;
27161;SDS011;54464;50.558;9.704;2024-03-25T00:46:20;5.10;;;2.17;;
27161;SDS011;54464;50.558;9.704;2024-03-25T00:48:46;4.53;;;2.27;;
27161;SDS011;54464;50.558;9.704;2024-03-25T00:58:59;2.63;;;2.10;;
27161;SDS011;54464;50.558;9.704;2024-03-25T01:07:26;3.83;;;2.50;;
27161;SDS011;54464;50.558;9.704;2024-03-25T01:10:04;4.03;;;2.60;;
27161;SDS011;54464;50.558;9.704;2024-03-25T01:12:31;5.07;;;2.50;;
27161;SDS011;54464;50.558;9.704;2024-03-25T01:14:57;4.97;;;2.60;;
27161;SDS011;54464;50.558;9.704;2024-03-25T01:17:23;3.27;;;2.60;;
27161;SDS011;54464;50.558;9.704;2024-03-25T01:19:50;3.63;;;2.53;;
27161;SDS011;54464;50.558;9.704;2024-03-25T01:22:19;4.37;;;2.70;;
27161;SDS011;54464;50.558;9.704;2024-03-25T01:24:44;5.17;;;2.47;;
27161;SDS011;54464;50.558;9.704;2024-03-25T01:32:52;5.40;;;2.57;;
27161;SDS011;54464;50.558;9.704;2024-03-25T01:35:18;5.07;;;2.73;;
27161;SDS011;54464;50.558;9.704;2024-03-25T01:37:44;5.13;;;2.80;;
27161;SDS011;54464;50.558;9.704;2024-03-25T01:40:10;4.07;;;2.70;;
27161;SDS011;54464;50.558;9.704;2024-03-25T02:08:44;4.70;;;2.40;;
27161;SDS011;54464;50.558;9.704;2024-03-25T02:11:20;4.93;;;2.63;;
27161;SDS011;54464;50.558;9.704;2024-03-25T02:13:56;4.80;;;2.20;;
27161;SDS011;54464;50.558;9.704;2024-03-25T02:16:23;5.00;;;2.33;;
27161;SDS011;54464;50.558;9.704;2024-03-25T02:18:50;6.90;;;3.00;;
27161;SDS011;54464;50.558;9.704;2024-03-25T02:21:15;3.13;;;2.17;;
27161;SDS011;54464;50.558;9.704;2024-03-25T02:23:42;6.10;;;3.00;;
27161;SDS011;54464;50.558;9.704;2024-03-25T02:26:10;5.13;;;2.67;;
27161;SDS011;54464;50.558;9.704;2024-03-25T02:28:35;2.77;;;2.17;;
27161;SDS011;54464;50.558;9.704;2024-03-25T02:31:02;5.00;;;2.80;;
27161;SDS011;54464;50.558;9.704;2024-03-25T02:33:28;3.80;;;2.50;;
27161;SDS011;54464;50.558;9.704;2024-03-25T02:35:54;7.30;;;2.73;;
27161;SDS011;54464;50.558;9.704;2024-03-25T02:38:20;6.13;;;2.50;;
27161;SDS011;54464;50.558;9.704;2024-03-25T02:40:49;5.23;;;2.40;;
27161;SDS011;54464;50.558;9.704;2024-03-25T02:43:33;6.33;;;2.60;;
27161;SDS011;54464;50.558;9.704;2024-03-25T02:45:59;5.70;;;2.50;;
27161;SDS011;54464;50.558;9.704;2024-03-25T02:48:26;7.40;;;2.87;;
27161;SDS011;54464;50.558;9.704;2024-03-25T02:50:51;5.40;;;3.13;;
27161;SDS011;54464;50.558;9.704;2024-03-25T02:53:18;3.90;;;2.60;;
27161;SDS011;54464;50.558;9.704;2024-03-25T03:00:55;5.93;;;3.20;;
27161;SDS011;54464;50.558;9.704;2024-03-25T03:03:22;6.23;;;3.43;;
27161;SDS011;54464;50.558;9.704;2024-03-25T03:05:47;6.27;;;2.90;;
27161;SDS011;54464;50.558;9.704;2024-03-25T03:08:13;5.47;;;2.20;;
27161;SDS011;54464;50.558;9.704;2024-03-25T03:28:39;5.93;;;2.77;;
27161;SDS011;54464;50.558;9.704;2024-03-25T03:31:06;3.87;;;2.93;;
27161;SDS011;54464;50.558;9.704;2024-03-25T03:33:32;6.83;;;3.00;;
27161;SDS011;54464;50.558;9.704;2024-03-25T03:35:57;4.90;;;2.80;;
27161;SDS011;54464;50.558;9.704;2024-03-25T03:38:23;6.53;;;3.23;;
27161;SDS011;54464;50.558;9.704;2024-03-25T03:48:34;6.40;;;2.60;;
27161;SDS011;54464;50.558;9.704;2024-03-25T03:51:01;6.87;;;3.03;;
27161;SDS011;54464;50.558;9.704;2024-03-25T03:53:27;5.00;;;3.00;;
27161;SDS011;54464;50.558;9.704;2024-03-25T03:55:53;10.00;;;3.00;;
27161;SDS011;54464;50.558;9.704;2024-03-25T03:58:20;5.57;;;3.20;;
27161;SDS011;54464;50.558;9.704;2024-03-25T04:00:46;6.17;;;3.10;;
27161;SDS011;54464;50.558;9.704;2024-03-25T04:03:12;5.80;;;2.73;;
27161;SDS011;54464;50.558;9.704;2024-03-25T04:05:38;6.17;;;3.20;;
27161;SDS011;54464;50.558;9.704;2024-03-25T04:08:04;5.20;;;3.00;;
27161;SDS011;54464;50.558;9.704;2024-03-25T04:10:31;7.73;;;3.00;;
27161;SDS011;54464;50.558;9.704;2024-03-25T04:12:57;6.93;;;2.97;;
27161;SDS011;54464;50.558;9.704;2024-03-25T04:15:23;7.00;;;2.90;;
27161;SDS011;54464;50.558;9.704;2024-03-25T04:17:51;5.93;;;2.97;;
27161;SDS011;54464;50.558;9.704;2024-03-25T04:20:17;6.87;;;3.20;;
27161;SDS011;54464;50.558;9.704;2024-03-25T04:22:44;10.10;;;2.97;;
27161;SDS011;54464;50.558;9.704;2024-03-25T04:25:13;5.80;;;2.73;;
27161;SDS011;54464;50.558;9.704;2024-03-25T04:27:41;6.70;;;3.40;;
27161;SDS011;54464;50.558;9.704;2024-03-25T04:30:08;7.43;;;3.10;;
27161;SDS011;54464;50.558;9.704;2024-03-25T04:32:36;4.00;;;2.97;;
27161;SDS011;54464;50.558;9.704;2024-03-25T04:35:02;7.00;;;3.23;;
27161;SDS011;54464;50.558;9.704;2024-03-25T04:37:29;7.80;;;3.40;;
27161;SDS011;54464;50.558;9.704;2024-03-25T04:39:55;7.63;;;3.33;;
27161;SDS011;54464;50.558;9.704;2024-03-25T04:42:21;7.43;;;3.13;;
27161;SDS011;54464;50.558;9.704;2024-03-25T04:44:47;7.37;;;3.93;;
27161;SDS011;54464;50.558;9.704;2024-03-25T04:47:13;7.10;;;3.60;;
27161;SDS011;54464;50.558;9.704;2024-03-25T04:49:42;6.27;;;3.33;;
27161;SDS011;54464;50.558;9.704;2024-03-25T04:52:07;7.87;;;3.20;;
27161;SDS011;54464;50.558;9.704;2024-03-25T04:54:33;5.80;;;3.10;;
27161;SDS011;54464;50.558;9.704;2024-03-25T04:56:59;7.17;;;3.10;;
27161;SDS011;54464;50.558;9.704;2024-03-25T04:59:25;8.90;;;3.63;;
27161;SDS011;54464;50.558;9.704;2024-03-25T05:01:50;10.70;;;3.77;;
27161;SDS011;54464;50.558;9.704;2024-03-25T05:04:17;9.17;;;4.50;;
27161;SDS011;54464;50.558;9.704;2024-03-25T05:06:43;8.03;;;3.37;;
27161;SDS011;54464;50.558;9.704;2024-03-25T05:09:09;8.00;;;3.10;;
27161;SDS011;54464;50.558;9.704;2024-03-25T05:11:37;6.23;;;3.60;;
27161;SDS011;54464;50.558;9.704;2024-03-25T05:14:03;6.57;;;3.70;;
27161;SDS011;54464;50.558;9.704;2024-03-25T05:16:28;6.73;;;3.53;;
27161;SDS011;54464;50.558;9.704;2024-03-25T05:18:54;6.77;;;3.50;;
27161;SDS011;54464;50.558;9.704;2024-03-25T05:21:19;6.93;;;3.20;;
27161;SDS011;54464;50.558;9.704;2024-03-25T05:23:45;7.27;;;3.60;;
27161;SDS011;54464;50.558;9.704;2024-03-25T05:26:15;6.70;;;4.27;;
27161;SDS011;54464;50.558;9.704;2024-03-25T05:28:40;9.47;;;3.77;;
27161;SDS011;54464;50.558;9.704;2024-03-25T05:31:09;10.40;;;4.47;;
27161;SDS011;54464;50.558;9.704;2024-03-25T05:33:35;10.80;;;5.50;;
27161;SDS011;54464;50.558;9.704;2024-03-25T05:36:07;7.17;;;4.30;;
27161;SDS011;54464;50.558;9.704;2024-03-25T05:38:42;9.93;;;4.70;;
27161;SDS011;54464;50.558;9.704;2024-03-25T12:37:02;5.87;;;2.13;;
27161;SDS011;54464;50.558;9.704;2024-03-25T13:16:16;4.83;;;1.37;;
27161;SDS011;54464;50.558;9.704;2024-03-25T13:46:33;4.63;;;1.70;;
27161;SDS011;54464;50.558;9.704;2024-03-25T13:51:43;2.57;;;1.40;;
27161;SDS011;54464;50.558;9.704;2024-03-25T14:25:10;3.57;;;1.43;;
27161;SDS011;54464;50.558;9.704;2024-03-25T14:31:42;3.37;;;1.30;;
27161;SDS011;54464;50.558;9.704;2024-03-25T14:34:08;3.20;;;1.50;;
27161;SDS011;54464;50.558;9.704;2024-03-25T14:36:36;4.60;;;1.37;;
27161;SDS011;54464;50.558;9.704;2024-03-25T14:39:01;3.43;;;1.33;;
27161;SDS011;54464;50.558;9.704;2024-03-25T14:41:29;4.30;;;1.50;;
27161;SDS011;54464;50.558;9.704;2024-03-25T14:44:04;4.83;;;1.53;;
27161;SDS011;54464;50.558;9.704;2024-03-25T14:46:29;3.03;;;1.63;;
27161;SDS011;54464;50.558;9.704;2024-03-25T14:48:55;3.33;;;1.60;;
27161;SDS011;54464;50.558;9.704;2024-03-25T14:51:24;3.60;;;1.60;;
27161;SDS011;54464;50.558;9.704;2024-03-25T14:53:49;5.03;;;1.53;;
27161;SDS011;54464;50.558;9.704;2024-03-25T14:56:16;3.10;;;1.70;;
27161;SDS011;54464;50.558;9.704;2024-03-25T14:58:41;4.27;;;1.90;;
27161;SDS011;54464;50.558;9.704;2024-03-25T15:01:07;4.57;;;1.90;;
27161;SDS011;54464;50.558;9.704;2024-03-25T15:03:35;4.30;;;1.50;;
27161;SDS011;54464;50.558;9.704;2024-03-25T15:06:01;5.50;;;1.80;;
27161;SDS011;54464;50.558;9.704;2024-03-25T15:08:31;5.40;;;1.60;;
27161;SDS011;54464;50.558;9.704;2024-03-25T15:10:57;6.03;;;1.90;;
27161;SDS011;54464;50.558;9.704;2024-03-25T15:13:23;4.17;;;1.87;;
27161;SDS011;54464;50.558;9.704;2024-03-25T15:15:48;4.43;;;1.30;;
27161;SDS011;54464;50.558;9.704;2024-03-25T15:18:14;5.13;;;1.43;;
27161;SDS011;54464;50.558;9.704;2024-03-25T15:20:40;3.03;;;1.40;;
27161;SDS011;54464;50.558;9.704;2024-03-25T15:23:05;4.57;;;1.60;;
27161;SDS011;54464;50.558;9.704;2024-03-25T15:25:31;3.60;;;1.43;;
27161;SDS011;54464;50.558;9.704;2024-03-25T15:27:59;3.90;;;1.63;;
27161;SDS011;54464;50.558;9.704;2024-03-25T15:30:24;5.80;;;1.80;;
27161;SDS011;54464;50.558;9.704;2024-03-25T15:32:50;7.20;;;1.67;;
27161;SDS011;54464;50.558;9.704;2024-03-25T15:35:16;4.47;;;1.27;;
27161;SDS011;54464;50.558;9.704;2024-03-25T15:37:42;3.60;;;1.53;;
27161;SDS011;54464;50.558;9.704;2024-03-25T15:40:16;5.97;;;1.60;;
27161;SDS011;54464;50.558;9.704;2024-03-25T15:42:43;2.93;;;1.50;;
27161;SDS011;54464;50.558;9.704;2024-03-25T15:45:08;5.00;;;1.90;;
27161;SDS011;54464;50.558;9.704;2024-03-25T15:47:34;3.23;;;1.50;;
27161;SDS011;54464;50.558;9.704;2024-03-25T15:50:00;3.83;;;1.30;;
27161;SDS011;54464;50.558;9.704;2024-03-25T15:52:26;3.13;;;1.20;;
27161;SDS011;54464;50.558;9.704;2024-03-25T15:54:54;4.20;;;1.70;;
27161;SDS011;54464;50.558;9.704;2024-03-25T15:57:26;3.90;;;1.13;;
27161;SDS011;54464;50.558;9.704;2024-03-25T16:00:07;3.30;;;1.20;;
27161;SDS011;54464;50.558;9.704;2024-03-25T16:02:37;2.73;;;1.20;;
27161;SDS011;54464;50.558;9.704;2024-03-25T16:05:02;2.10;;;1.10;;
27161;SDS011;54464;50.558;9.704;2024-03-25T16:07:34;3.70;;;1.30;;
27161;SDS011;54464;50.558;9.704;2024-03-25T16:09:59;4.50;;;1.60;;
27161;SDS011;54464;50.558;9.704;2024-03-25T16:12:25;5.43;;;1.50;;
27161;SDS011;54464;50.558;9.704;2024-03-25T16:14:51;3.47;;;1.33;;
27161;SDS011;54464;50.558;9.704;2024-03-25T16:17:21;3.13;;;1.33;;
27161;SDS011;54464;50.558;9.704;2024-03-25T16:19:50;2.53;;;1.30;;
27161;SDS011;54464;50.558;9.704;2024-03-25T16:22:16;3.47;;;1.10;;
27161;SDS011;54464;50.558;9.704;2024-03-25T16:24:41;4.60;;;1.10;;
27161;SDS011;54464;50.558;9.704;2024-03-25T16:27:07;3.17;;;1.23;;
27161;SDS011;54464;50.558;9.704;2024-03-25T16:29:33;4.93;;;1.20;;
27161;SDS011;54464;50.558;9.704;2024-03-25T16:31:59;2.60;;;1.20;;
27161;SDS011;54464;50.558;9.704;2024-03-25T16:34:25;4.93;;;1.20;;
27161;SDS011;54464;50.558;9.704;2024-03-25T16:36:54;3.33;;;1.27;;
27161;SDS011;54464;50.558;9.704;2024-03-25T16:39:22;4.43;;;1.43;;
27161;SDS011;54464;50.558;9.704;2024-03-25T16:41:48;3.47;;;1.33;;
27161;SDS011;54464;50.558;9.704;2024-03-25T16:44:14;3.33;;;1.30;;
27161;SDS011;54464;50.558;9.704;2024-03-25T16:46:40;4.07;;;1.70;;
27161;SDS011;54464;50.558;9.704;2024-03-25T16:49:06;3.57;;;1.20;;
27161;SDS011;54464;50.558;9.704;2024-03-25T16:51:32;2.50;;;1.30;;
27161;SDS011;54464;50.558;9.704;2024-03-25T16:53:58;4.90;;;1.70;;
27161;SDS011;54464;50.558;9.704;2024-03-25T16:56:24;5.03;;;1.90;;
27161;SDS011;54464;50.558;9.704;2024-03-25T16:58:52;6.97;;;3.10;;
27161;SDS011;54464;50.558;9.704;2024-03-25T17:01:17;6.23;;;3.07;;
27161;SDS011;54464;50.558;9.704;2024-03-25T17:03:43;5.07;;;1.90;;
27161;SDS011;54464;50.558;9.704;2024-03-25T17:06:09;2.90;;;1.70;;
27161;SDS011;54464;50.558;9.704;2024-03-25T17:08:35;4.73;;;2.10;;
27161;SDS011;54464;50.558;9.704;2024-03-25T17:11:01;5.20;;;2.00;;
27161;SDS011;54464;50.558;9.704;2024-03-25T17:13:27;4.03;;;1.57;;
27161;SDS011;54464;50.558;9.704;2024-03-25T17:15:52;3.17;;;1.73;;
27161;SDS011;54464;50.558;9.704;2024-03-25T17:18:21;4.00;;;1.60;;
27161;SDS011;54464;50.558;9.704;2024-03-25T17:20:50;2.70;;;1.50;;
27161;SDS011;54464;50.558;9.704;2024-03-25T17:23:23;4.53;;;2.10;;
27161;SDS011;54464;50.558;9.704;2024-03-25T17:25:49;4.23;;;2.83;;
27161;SDS011;54464;50.558;9.704;2024-03-25T17:28:18;4.03;;;2.20;;
27161;SDS011;54464;50.558;9.704;2024-03-25T17:30:44;4.97;;;2.20;;
27161;SDS011;54464;50.558;9.704;2024-03-25T17:33:12;8.80;;;3.20;;
27161;SDS011;54464;50.558;9.704;2024-03-25T17:35:40;4.87;;;2.80;;
27161;SDS011;54464;50.558;9.704;2024-03-25T17:38:06;5.97;;;3.17;;
27161;SDS011;54464;50.558;9.704;2024-03-25T17:40:32;6.60;;;3.00;;
27161;SDS011;54464;50.558;9.704;2024-03-25T17:42:57;4.47;;;2.73;;
27161;SDS011;54464;50.558;9.704;2024-03-25T17:45:23;5.17;;;2.20;;
27161;SDS011;54464;50.558;9.704;2024-03-25T17:47:49;5.10;;;2.17;;
27161;SDS011;54464;50.558;9.704;2024-03-25T17:50:14;4.43;;;1.83;;
27161;SDS011;54464;50.558;9.704;2024-03-25T17:52:43;3.27;;;1.60;;
27161;SDS011;54464;50.558;9.704;2024-03-25T17:55:09;3.83;;;2.00;;
27161;SDS011;54464;50.558;9.704;2024-03-25T17:57:34;6.17;;;2.27;;
27161;SDS011;54464;50.558;9.704;2024-03-25T18:00:00;7.10;;;2.30;;
27161;SDS011;54464;50.558;9.704;2024-03-25T18:02:25;4.37;;;1.90;;
27161;SDS011;54464;50.558;9.704;2024-03-25T18:04:51;4.57;;;2.20;;
27161;SDS011;54464;50.558;9.704;2024-03-25T18:07:17;4.93;;;2.30;;
27161;SDS011;54464;50.558;9.704;2024-03-25T18:09:42;3.80;;;2.43;;
27161;SDS011;54464;50.558;9.704;2024-03-25T18:12:08;6.17;;;2.53;;
27161;SDS011;54464;50.558;9.704;2024-03-25T18:14:34;3.20;;;2.07;;
27161;SDS011;54464;50.558;9.704;2024-03-25T18:17:00;4.77;;;2.27;;
27161;SDS011;54464;50.558;9.704;2024-03-25T18:19:26;5.00;;;2.17;;
27161;SDS011;54464;50.558;9.704;2024-03-25T18:21:51;7.23;;;2.70;;
27161;SDS011;54464;50.558;9.704;2024-03-25T18:24:17;6.30;;;2.47;;
27161;SDS011;54464;50.558;9.704;2024-03-25T18:26:42;3.90;;;2.37;;
27161;SDS011;54464;50.558;9.704;2024-03-25T18:29:08;3.77;;;1.60;;
27161;SDS011;54464;50.558;9.704;2024-03-25T18:31:33;7.53;;;2.50;;
27161;SDS011;54464;50.558;9.704;2024-03-25T18:34:00;6.73;;;2.43;;
27161;SDS011;54464;50.558;9.704;2024-03-25T18:36:27;5.00;;;2.33;;
27161;SDS011;54464;50.558;9.704;2024-03-25T18:38:53;4.80;;;2.23;;
27161;SDS011;54464;50.558;9.704;2024-03-25T18:41:18;6.23;;;2.27;;
27161;SDS011;54464;50.558;9.704;2024-03-25T18:43:44;7.23;;;2.83;;
27161;SDS011;54464;50.558;9.704;2024-03-25T18:46:10;8.30;;;2.97;;
27161;SDS011;54464;50.558;9.704;2024-03-25T18:48:35;5.73;;;3.43;;
27161;SDS011;54464;50.558;9.704;2024-03-25T18:51:01;6.57;;;3.90;;
27161;SDS011;54464;50.558;9.704;2024-03-25T18:53:27;8.03;;;3.57;;
27161;SDS011;54464;50.558;9.704;2024-03-25T18:55:52;12.77;;;6.87;;
27161;SDS011;54464;50.558;9.704;2024-03-25T18:58:18;13.53;;;7.17;;
27161;SDS011;54464;50.558;9.704;2024-03-25T19:00:43;11.53;;;6.77;;
27161;SDS011;54464;50.558;9.704;2024-03-25T19:03:09;9.43;;;5.60;;
27161;SDS011;54464;50.558;9.704;2024-03-25T19:05:35;6.27;;;4.07;;
27161;SDS011;54464;50.558;9.704;2024-03-25T19:08:00;6.03;;;3.27;;
27161;SDS011;54464;50.558;9.704;2024-03-25T19:10:26;8.00;;;3.20;;
27161;SDS011;54464;50.558;9.704;2024-03-25T19:12:51;5.73;;;3.53;;
27161;SDS011;54464;50.558;9.704;2024-03-25T19:15:17;6.57;;;2.93;;
27161;SDS011;54464;50.558;9.704;2024-03-25T19:17:43;4.77;;;2.47;;
27161;SDS011;54464;50.558;9.704;2024-03-25T19:20:08;6.40;;;2.20;;
27161;SDS011;54464;50.558;9.704;2024-03-25T19:22:35;4.93;;;2.20;;
27161;SDS011;54464;50.558;9.704;2024-03-25T19:25:00;6.30;;;2.40;;
27161;SDS011;54464;50.558;9.704;2024-03-25T19:27:26;7.33;;;2.37;;
27161;SDS011;54464;50.558;9.704;2024-03-25T19:29:52;4.97;;;2.50;;
27161;SDS011;54464;50.558;9.704;2024-03-25T19:32:18;5.30;;;2.70;;
27161;SDS011;54464;50.558;9.704;2024-03-25T19:34:47;4.87;;;2.13;;
27161;SDS011;54464;50.558;9.704;2024-03-25T19:37:12;4.00;;;2.17;;
27161;SDS011;54464;50.558;9.704;2024-03-25T19:39:38;8.10;;;2.80;;
27161;SDS011;54464;50.558;9.704;2024-03-25T19:42:09;4.73;;;2.87;;
27161;SDS011;54464;50.558;9.704;2024-03-25T19:44:35;6.13;;;2.80;;
27161;SDS011;54464;50.558;9.704;2024-03-25T19:47:01;6.23;;;3.03;;
27161;SDS011;54464;50.558;9.704;2024-03-25T19:49:28;9.20;;;3.40;;
27161;SDS011;54464;50.558;9.704;2024-03-25T19:51:54;8.13;;;3.60;;
27161;SDS011;54464;50.558;9.704;2024-03-25T19:54:19;8.17;;;4.53;;
27161;SDS011;54464;50.558;9.704;2024-03-25T19:56:45;11.67;;;3.80;;
27161;SDS011;54464;50.558;9.704;2024-03-25T19:59:11;7.60;;;3.90;;
27161;SDS011;54464;50.558;9.704;2024-03-25T20:01:38;8.33;;;4.20;;
27161;SDS011;54464;50.558;9.704;2024-03-25T20:04:04;5.43;;;3.47;;
27161;SDS011;54464;50.558;9.704;2024-03-25T20:06:30;5.87;;;3.53;;
27161;SDS011;54464;50.558;9.704;2024-03-25T20:08:56;7.57;;;4.30;;
27161;SDS011;54464;50.558;9.704;2024-03-25T20:11:22;9.50;;;3.87;;
27161;SDS011;54464;50.558;9.704;2024-03-25T20:13:47;6.67;;;3.10;;
27161;SDS011;54464;50.558;9.704;2024-03-25T20:16:13;6.17;;;2.93;;
27161;SDS011;54464;50.558;9.704;2024-03-25T20:18:39;7.03;;;3.60;;
27161;SDS011;54464;50.558;9.704;2024-03-25T20:21:04;6.03;;;2.97;;
27161;SDS011;54464;50.558;9.704;2024-03-25T20:23:30;7.23;;;2.80;;
27161;SDS011;54464;50.558;9.704;2024-03-25T20:25:55;5.37;;;2.70;;
27161;SDS011;54464;50.558;9.704;2024-03-25T20:28:22;7.30;;;2.93;;
27161;SDS011;54464;50.558;9.704;2024-03-25T20:30:48;5.10;;;2.73;;
27161;SDS011;54464;50.558;9.704;2024-03-25T20:33:13;4.67;;;3.00;;
27161;SDS011;54464;50.558;9.704;2024-03-25T20:35:39;8.33;;;3.03;;
27161;SDS011;54464;50.558;9.704;2024-03-25T20:38:05;7.27;;;5.33;;
27161;SDS011;54464;50.558;9.704;2024-03-25T20:40:30;7.00;;;4.13;;
27161;SDS011;54464;50.558;9.704;2024-03-25T20:42:56;6.23;;;3.20;;
27161;SDS011;54464;50.558;9.704;2024-03-25T20:45:21;6.07;;;2.90;;
27161;SDS011;54464;50.558;9.704;2024-03-25T20:47:47;5.43;;;3.10;;
27161;SDS011;54464;50.558;9.704;2024-03-25T20:50:13;6.67;;;3.43;;
27161;SDS011;54464;50.558;9.704;2024-03-25T20:52:38;7.90;;;3.67;;
27161;SDS011;54464;50.558;9.704;2024-03-25T20:55:04;8.70;;;5.10;;
27161;SDS011;54464;50.558;9.704;2024-03-25T20:57:34;11.27;;;4.93;;
27161;SDS011;54464;50.558;9.704;2024-03-25T21:00:00;10.17;;;4.73;;
27161;SDS011;54464;50.558;9.704;2024-03-25T21:02:34;8.67;;;4.77;;
27161;SDS011;54464;50.558;9.704;2024-03-25T21:04:59;8.37;;;3.40;;
27161;SDS011;54464;50.558;9.704;2024-03-25T21:07:25;4.10;;;3.23;;
27161;SDS011;54464;50.558;9.704;2024-03-25T21:09:51;5.37;;;3.20;;
27161;SDS011;54464;50.558;9.704;2024-03-25T21:12:16;6.80;;;3.83;;
27161;SDS011;54464;50.558;9.704;2024-03-25T21:14:43;8.57;;;4.40;;
27161;SDS011;54464;50.558;9.704;2024-03-25T21:17:08;9.93;;;4.07;;
27161;SDS011;54464;50.558;9.704;2024-03-25T21:19:35;8.13;;;3.83;;
27161;SDS011;54464;50.558;9.704;2024-03-25T21:22:01;6.47;;;3.90;;
27161;SDS011;54464;50.558;9.704;2024-03-25T21:24:26;6.47;;;3.90;;
27161;SDS011;54464;50.558;9.704;2024-03-25T21:26:52;6.67;;;3.50;;
27161;SDS011;54464;50.558;9.704;2024-03-25T21:29:17;6.97;;;3.53;;
27161;SDS011;54464;50.558;9.704;2024-03-25T21:31:43;7.37;;;4.17;;
27161;SDS011;54464;50.558;9.704;2024-03-25T21:34:08;8.70;;;4.43;;
27161;SDS011;54464;50.558;9.704;2024-03-25T21:36:34;8.37;;;3.97;;
27161;SDS011;54464;50.558;9.704;2024-03-25T21:39:00;9.10;;;4.30;;
27161;SDS011;54464;50.558;9.704;2024-03-25T21:48:58;12.80;;;5.03;;
27161;SDS011;54464;50.558;9.704;2024-03-25T21:53:52;15.20;;;5.53;;
27161;SDS011;54464;50.558;9.704;2024-03-25T21:56:17;12.87;;;5.37;;
27161;SDS011;54464;50.558;9.704;2024-03-25T21:58:43;10.93;;;4.53;;
27161;SDS011;54464;50.558;9.704;2024-03-25T22:01:08;8.53;;;4.37;;
27161;SDS011;54464;50.558;9.704;2024-03-25T22:03:34;7.27;;;3.37;;
27161;SDS011;54464;50.558;9.704;2024-03-25T22:08:50;6.80;;;3.83;;
27161;SDS011;54464;50.558;9.704;2024-03-25T22:11:16;8.07;;;3.57;;
27161;SDS011;54464;50.558;9.704;2024-03-25T22:13:41;11.13;;;5.03;;
27161;SDS011;54464;50.558;9.704;2024-03-25T22:16:07;7.27;;;3.67;;
27161;SDS011;54464;50.558;9.704;2024-03-25T22:18:32;9.47;;;3.40;;
27161;SDS011;54464;50.558;9.704;2024-03-25T22:20:58;6.33;;;4.00;;
27161;SDS011;54464;50.558;9.704;2024-03-25T22:23:28;6.83;;;4.10;;
27161;SDS011;54464;50.558;9.704;2024-03-25T22:25:57;7.60;;;4.43;;
27161;SDS011;54464;50.558;9.704;2024-03-25T22:28:23;5.47;;;3.07;;
27161;SDS011;54464;50.558;9.704;2024-03-25T22:31:01;4.90;;;3.00;;
27161;SDS011;54464;50.558;9.704;2024-03-25T22:33:29;6.23;;;2.97;;
27161;SDS011;54464;50.558;9.704;2024-03-25T22:38:26;6.33;;;3.70;;
27161;SDS011;54464;50.558;9.704;2024-03-25T22:40:52;6.13;;;3.00;;
27161;SDS011;54464;50.558;9.704;2024-03-25T22:48:20;4.33;;;2.53;;
27161;SDS011;54464;50.558;9.704;2024-03-25T22:53:26;6.03;;;3.63;;
27161;SDS011;54464;50.558;9.704;2024-03-25T22:55:58;5.27;;;2.77;;
27161;SDS011;54464;50.558;9.704;2024-03-25T22:58:24;3.97;;;2.40;;
27161;SDS011;54464;50.558;9.704;2024-03-25T23:00:50;6.00;;;3.40;;
27161;SDS011;54464;50.558;9.704;2024-03-25T23:03:16;5.40;;;3.30;;
27161;SDS011;54464;50.558;9.704;2024-03-25T23:05:43;4.33;;;2.60;;
27161;SDS011;54464;50.558;9.704;2024-03-25T23:08:08;3.73;;;2.83;;
27161;SDS011;54464;50.558;9.704;2024-03-25T23:10:34;6.63;;;2.80;;
27161;SDS011;54464;50.558;9.704;2024-03-25T23:13:00;6.47;;;3.17;;
27161;SDS011;54464;50.558;9.704;2024-03-25T23:15:25;6.23;;;3.23;;
27161;SDS011;54464;50.558;9.704;2024-03-25T23:17:53;6.83;;;3.10;;
27161;SDS011;54464;50.558;9.704;2024-03-25T23:20:19;7.77;;;2.67;;
27161;SDS011;54464;50.558;9.704;2024-03-25T23:22:44;4.63;;;2.57;;
27161;SDS011;54464;50.558;9.704;2024-03-25T23:25:11;6.50;;;2.60;;
27161;SDS011;54464;50.558;9.704;2024-03-25T23:27:37;5.90;;;3.00;;
27161;SDS011;54464;50.558;9.704;2024-03-25T23:30:02;4.13;;;2.67;;
27161;SDS011;54464;50.558;9.704;2024-03-25T23:32:28;4.43;;;2.67;;
27161;SDS011;54464;50.558;9.704;2024-03-25T23:34:54;3.37;;;2.30;;
27161;SDS011;54464;50.558;9.704;2024-03-25T23:37:19;2.43;;;2.00;;
27161;SDS011;54464;50.558;9.704;2024-03-25T23:39:45;3.47;;;2.30;;
27161;SDS011;54464;50.558;9.704;2024-03-25T23:42:10;3.00;;;2.70;;
27161;SDS011;54464;50.558;9.704;2024-03-25T23:44:37;5.40;;;2.70;;
27161;SDS011;54464;50.558;9.704;2024-03-25T23:47:02;3.80;;;2.40;;
27161;SDS011;54464;50.558;9.704;2024-03-25T23:49:28;3.20;;;2.30;;
27161;SDS011;54464;50.558;9.704;2024-03-25T23:51:54;4.37;;;2.47;;
27161;SDS011;54464;50.558;9.704;2024-03-25T23:54:19;3.67;;;2.07;;
27161;SDS011;54464;50.558;9.704;2024-03-25T23:56:45;3.10;;;2.20;;
27161;SDS011;54464;50.558;9.704;2024-03-25T23:59:10;4.40;;;2.40;;
